Time;durP1;ratioP1;P1;durP2;ratioP2;P2;SDS_P1;SDS_P2;PMS_P1;PMS_P2;Temp;Humidity;BMP_temperature;BMP_pressure;BME280_temperature;BME280_humidity;BME280_pressure;Samples;Min_cycle;Max_cycle;Signal;HPM_P1;HPM_P2
2021/05/10 00:01:35;;;;;;;28.65;14.23;;;;;;;12.23;87.87;99454.16;5085349;28;20063;-65
2021/05/10 00:04:01;;;;;;;11.77;7.65;;;;;;;12.40;87.26;99457.97;5085109;28;20027;-66
2021/05/10 00:06:27;;;;;;;18.25;8.27;;;;;;;12.34;87.43;99459.03;5085242;28;20039;-65
2021/05/10 00:08:53;;;;;;;18.33;9.13;;;;;;;12.42;87.12;99448.38;5085287;28;20067;-65
2021/05/10 00:11:18;;;;;;;22.92;10.98;;;;;;;12.29;87.75;99431.44;5085487;28;20032;-67
2021/05/10 00:13:46;;;;;;;17.40;8.25;;;;;;;12.33;88.00;99441.69;5085551;28;20107;-67
2021/05/10 00:16:12;;;;;;;15.40;8.55;;;;;;;12.34;88.11;99432.16;5085367;28;20463;-67
2021/05/10 00:18:38;;;;;;;17.85;11.10;;;;;;;12.23;88.51;99440.28;5084156;28;20017;-66
2021/05/10 00:21:03;;;;;;;17.35;9.82;;;;;;;12.21;88.78;99437.75;5085186;28;20025;-66
2021/05/10 00:23:29;;;;;;;19.00;10.18;;;;;;;12.31;88.44;99420.09;5084852;28;20036;-66
2021/05/10 00:25:54;;;;;;;24.02;12.05;;;;;;;12.30;88.75;99407.97;5084814;28;20028;-67
2021/05/10 00:28:19;;;;;;;19.67;11.05;;;;;;;12.35;88.53;99393.06;5084921;28;20081;-66
2021/05/10 00:30:45;;;;;;;26.48;11.85;;;;;;;12.31;88.52;99370.66;5084941;28;20020;-67
2021/05/10 00:33:10;;;;;;;20.30;12.07;;;;;;;12.27;88.82;99327.38;5084640;28;20024;-66
2021/05/10 00:35:36;;;;;;;12.90;5.80;;;;;;;12.56;87.56;99317.75;5084852;28;20066;-66
2021/05/10 00:38:01;;;;;;;19.42;11.02;;;;;;;12.45;87.80;99319.88;5084823;28;20096;-65
2021/05/10 00:40:29;;;;;;;9.57;6.35;;;;;;;12.45;87.96;99319.88;5084835;28;20024;-66
2021/05/10 00:42:55;;;;;;;13.57;5.97;;;;;;;12.51;88.06;99322.25;5084644;28;20108;-65
2021/05/10 00:45:23;;;;;;;6.03;3.95;;;;;;;12.71;87.24;99320.75;5084815;28;20083;-66
2021/05/10 00:47:48;;;;;;;7.65;5.28;;;;;;;12.75;86.99;99328.38;5084629;28;20028;-66
2021/05/10 00:50:15;;;;;;;15.20;7.90;;;;;;;12.57;87.67;99323.81;5084105;28;20024;-66
2021/05/10 00:52:40;;;;;;;14.80;7.10;;;;;;;12.62;88.19;99322.75;5085017;28;20020;-66
2021/05/10 00:55:09;;;;;;;16.63;9.18;;;;;;;12.58;88.04;99317.69;5084604;28;20026;-65
2021/05/10 00:57:38;;;;;;;8.77;4.65;;;;;;;12.88;86.86;99318.38;5084306;28;20084;-65
2021/05/10 01:00:06;;;;;;;13.90;7.93;;;;;;;12.77;87.53;99321.38;5084154;28;20027;-65
2021/05/10 01:02:31;;;;;;;11.35;5.28;;;;;;;12.87;86.99;99293.25;5084548;28;20052;-65
2021/05/10 01:04:57;;;;;;;10.50;7.15;;;;;;;12.90;86.79;99279.25;5083957;28;20017;-65
2021/05/10 01:07:22;;;;;;;9.13;7.18;;;;;;;12.74;87.73;99264.19;5084193;28;20103;-66
2021/05/10 01:09:47;;;;;;;8.38;5.75;;;;;;;12.84;87.51;99275.09;5084112;28;20031;-66
2021/05/10 01:12:13;;;;;;;10.65;5.40;;;;;;;12.86;87.13;99298.53;5084112;28;20020;-65
2021/05/10 01:14:38;;;;;;;6.75;4.07;;;;;;;13.02;86.64;99304.00;5083930;28;20032;-66
2021/05/10 01:17:04;;;;;;;8.10;5.32;;;;;;;13.03;86.55;99308.31;5083898;28;20039;-66
2021/05/10 01:19:32;;;;;;;7.28;4.20;;;;;;;13.10;86.37;99311.56;5083966;28;20047;-67
2021/05/10 01:21:58;;;;;;;14.02;6.57;;;;;;;12.89;87.08;99309.66;5084259;28;20020;-67
2021/05/10 01:24:25;;;;;;;8.02;4.47;;;;;;;13.10;86.27;99301.97;5083864;28;20477;-66
2021/05/10 01:26:52;;;;;;;9.40;5.03;;;;;;;13.21;85.55;99309.38;5083790;28;20054;-65
2021/05/10 01:29:17;;;;;;;9.50;5.28;;;;;;;13.00;86.70;99305.84;5083605;28;20021;-65
2021/05/10 01:31:43;;;;;;;9.10;6.03;;;;;;;13.10;86.27;99309.78;5083986;28;20085;-65
2021/05/10 01:34:08;;;;;;;8.23;4.88;;;;;;;13.14;86.25;99303.56;5083417;28;20048;-66
2021/05/10 01:36:34;;;;;;;9.73;5.30;;;;;;;13.06;86.29;99303.00;5083686;28;20032;-67
2021/05/10 01:38:59;;;;;;;9.98;5.78;;;;;;;13.09;86.26;99302.03;5083748;28;20013;-68
2021/05/10 01:41:25;;;;;;;9.15;5.03;;;;;;;13.14;86.16;99297.50;5083607;28;20028;-68
2021/05/10 01:43:50;;;;;;;6.47;4.72;;;;;;;13.14;86.03;99295.75;5083582;28;20028;-67
2021/05/10 01:46:15;;;;;;;8.15;5.90;;;;;;;13.18;85.87;99300.84;5083422;28;20062;-68
2021/05/10 01:48:41;;;;;;;10.40;5.63;;;;;;;13.31;85.28;99299.47;5081839;28;20020;-66
2021/05/10 01:51:06;;;;;;;5.57;3.88;;;;;;;13.32;85.02;99298.56;5083463;28;20033;-65
2021/05/10 01:53:32;;;;;;;6.72;4.63;;;;;;;13.31;85.12;99298.63;5083424;28;20036;-66
2021/05/10 01:55:58;;;;;;;8.30;5.45;;;;;;;13.16;85.75;99290.50;5083300;28;20021;-65
2021/05/10 01:58:24;;;;;;;7.60;4.82;;;;;;;13.29;85.49;99301.28;5083356;28;20021;-63
2021/05/10 02:00:49;;;;;;;7.63;5.28;;;;;;;13.25;85.55;99297.09;5083282;28;20048;-62
2021/05/10 02:03:17;;;;;;;5.00;2.75;;;;;;;13.50;84.38;99306.59;5083000;28;20024;-62
2021/05/10 02:05:43;;;;;;;5.38;4.10;;;;;;;13.49;84.37;99295.34;5083327;28;20048;-63
2021/05/10 02:08:11;;;;;;;9.15;5.18;;;;;;;13.43;84.57;99292.09;5083403;28;20100;-64
2021/05/10 02:10:48;;;;;;;11.20;4.55;;;;;;;13.36;85.01;99284.53;5083766;28;20108;-64
2021/05/10 02:13:14;;;;;;;9.05;4.63;;;;;;;13.33;85.07;99276.81;5083631;28;20033;-66
2021/05/10 02:15:44;;;;;;;8.20;4.28;;;;;;;13.54;84.09;99268.25;5083546;28;20426;-64
2021/05/10 02:18:11;;;;;;;5.38;4.07;;;;;;;13.56;83.58;99279.47;5083157;28;20313;-64
2021/05/10 02:20:40;;;;;;;9.27;4.00;;;;;;;13.50;83.94;99278.81;5081913;28;20032;-64
2021/05/10 02:23:09;;;;;;;6.95;3.75;;;;;;;13.52;84.05;99273.53;5083723;28;20048;-64
2021/05/10 02:25:39;;;;;;;5.80;4.60;;;;;;;13.47;84.02;99268.47;5083563;28;20028;-66
2021/05/10 02:28:06;;;;;;;5.60;3.63;;;;;;;13.63;83.32;99270.50;5083200;28;20084;-69
2021/05/10 02:30:32;;;;;;;4.75;3.88;;;;;;;13.70;82.69;99276.31;5083528;28;20059;-66
2021/05/10 02:32:59;;;;;;;4.25;3.05;;;;;;;13.59;83.32;99261.97;5083263;28;20571;-64
2021/05/10 02:35:25;;;;;;;7.03;3.60;;;;;;;13.70;82.64;99264.13;5082791;28;20032;-64
2021/05/10 02:37:51;;;;;;;4.28;2.90;;;;;;;13.80;82.06;99272.41;5083133;28;20161;-63
2021/05/10 02:40:21;;;;;;;3.72;2.38;;;;;;;13.94;81.18;99266.66;5083607;28;20104;-64
2021/05/10 02:42:46;;;;;;;3.95;2.83;;;;;;;13.88;81.53;99272.13;5087115;28;20481;-64
2021/05/10 02:45:12;;;;;;;5.90;3.25;;;;;;;14.09;80.26;99274.78;5087246;28;20055;-65
2021/05/10 02:47:39;;;;;;;5.20;3.72;;;;;;;13.79;81.62;99269.88;5087055;28;20028;-63
2021/05/10 02:50:07;;;;;;;4.70;3.45;;;;;;;13.75;81.95;99261.34;5086572;28;20021;-64
2021/05/10 02:52:33;;;;;;;3.30;2.53;;;;;;;14.07;80.01;99269.63;5086900;28;20028;-64
2021/05/10 02:54:58;;;;;;;5.22;3.72;;;;;;;14.08;79.89;99278.28;5086740;28;20028;-64
2021/05/10 02:57:24;;;;;;;5.28;3.20;;;;;;;13.94;80.52;99276.25;5086980;28;20032;-64
2021/05/10 02:59:49;;;;;;;6.15;3.28;;;;;;;14.06;79.80;99274.88;5086822;28;20020;-65
2021/05/10 03:02:15;;;;;;;3.88;2.22;;;;;;;14.11;79.84;99270.31;5086841;28;20059;-65
2021/05/10 03:04:40;;;;;;;5.88;3.95;;;;;;;13.94;80.17;99268.41;5086516;28;20475;-65
2021/05/10 03:07:05;;;;;;;5.68;2.83;;;;;;;13.87;80.73;99258.22;5086916;28;20122;-65
2021/05/10 03:09:32;;;;;;;4.20;3.53;;;;;;;13.81;81.10;99262.84;5086763;28;20039;-65
2021/05/10 03:11:58;;;;;;;4.85;3.15;;;;;;;13.75;81.37;99240.47;5086993;28;20078;-66
2021/05/10 03:14:24;;;;;;;4.85;3.25;;;;;;;13.88;80.75;99241.66;5086846;28;20025;-67
2021/05/10 03:16:49;;;;;;;5.13;3.38;;;;;;;13.95;80.19;99252.69;5086652;28;20052;-66
2021/05/10 03:19:16;;;;;;;7.00;4.40;;;;;;;13.83;80.78;99289.72;5086231;28;20020;-66
2021/05/10 03:21:42;;;;;;;6.75;3.00;;;;;;;13.86;80.35;99318.31;5086617;28;20058;-66
2021/05/10 03:24:09;;;;;;;4.35;3.00;;;;;;;13.95;80.05;99312.72;5086499;28;20025;-67
2021/05/10 03:26:36;;;;;;;5.70;3.28;;;;;;;14.00;79.00;99312.53;5086282;28;20017;-68
2021/05/10 03:29:02;;;;;;;5.93;3.72;;;;;;;13.62;80.60;99303.56;5086223;28;20021;-64
2021/05/10 03:31:28;;;;;;;5.47;3.25;;;;;;;13.49;81.14;99302.28;5085573;28;20036;-65
2021/05/10 03:33:54;;;;;;;8.13;5.65;;;;;;;13.16;82.34;99287.88;5085584;28;20492;-65
2021/05/10 03:36:19;;;;;;;6.25;3.72;;;;;;;13.31;82.13;99276.03;5085825;28;20029;-66
2021/05/10 03:38:45;;;;;;;5.97;3.60;;;;;;;13.18;82.75;99272.19;5085773;28;20028;-65
2021/05/10 03:41:10;;;;;;;3.70;2.97;;;;;;;13.26;82.40;99237.09;5086057;28;20028;-66
2021/05/10 03:43:35;;;;;;;5.93;3.60;;;;;;;13.05;83.48;99225.72;5085760;28;20020;-66
2021/05/10 03:46:01;;;;;;;3.55;3.15;;;;;;;13.20;82.86;99254.72;5085487;28;20025;-65
2021/05/10 03:48:26;;;;;;;7.05;5.53;;;;;;;13.01;83.85;99234.56;5085456;28;20092;-66
2021/05/10 03:50:51;;;;;;;4.63;3.25;;;;;;;13.24;82.92;99231.09;5084193;28;20024;-65
2021/05/10 03:53:17;;;;;;;7.10;4.50;;;;;;;13.12;83.30;99213.31;5084278;28;20099;-66
2021/05/10 03:55:42;;;;;;;8.23;5.53;;;;;;;13.07;83.90;99208.28;5084278;28;20016;-66
2021/05/10 03:58:07;;;;;;;6.65;3.83;;;;;;;13.24;83.08;99188.56;5085126;28;20024;-67
2021/05/10 04:00:33;;;;;;;9.15;4.88;;;;;;;13.12;83.63;99190.72;5085214;28;20121;-67
2021/05/10 04:03:02;;;;;;;6.47;5.20;;;;;;;13.13;83.69;99175.97;5085401;28;20024;-66
2021/05/10 04:15:50;;;;;;;5.20;4.07;;;;;;;13.53;81.18;99197.00;5085204;28;20119;-69
2021/05/10 04:18:15;;;;;;;4.22;3.78;;;;;;;13.70;80.48;99198.94;5084638;28;20428;-68
2021/05/10 04:20:41;;;;;;;4.03;3.42;;;;;;;13.57;81.41;99190.75;5083178;28;20101;-68
2021/05/10 04:23:06;;;;;;;5.03;3.30;;;;;;;13.79;80.63;99197.69;5083390;28;20021;-66
2021/05/10 04:25:31;;;;;;;6.68;4.38;;;;;;;13.69;81.03;99194.63;5084920;28;20490;-64
2021/05/10 04:27:57;;;;;;;5.85;3.88;;;;;;;13.83;80.13;99209.72;5084654;28;20102;-64
2021/05/10 04:30:23;;;;;;;7.10;4.68;;;;;;;13.76;80.44;99205.66;5084798;28;20091;-64
2021/05/10 04:32:48;;;;;;;5.05;3.72;;;;;;;13.87;80.06;99203.44;5084749;28;20024;-66
2021/05/10 04:35:14;;;;;;;8.77;5.40;;;;;;;13.67;81.71;99203.41;5084325;28;20032;-65
2021/05/10 04:37:39;;;;;;;6.13;4.10;;;;;;;13.95;80.59;99204.88;5084427;28;20031;-67
2021/05/10 04:40:05;;;;;;;7.13;3.97;;;;;;;14.09;79.28;99197.31;5084258;28;20035;-67
2021/05/10 04:42:31;;;;;;;6.97;4.50;;;;;;;14.07;79.76;99193.94;5084038;28;20028;-67
2021/05/10 04:44:56;;;;;;;5.90;3.17;;;;;;;14.22;78.41;99182.00;5084537;28;20448;-70
2021/05/10 04:47:22;;;;;;;4.30;2.83;;;;;;;14.35;77.25;99203.19;5084709;28;20024;-72
2021/05/10 04:49:48;;;;;;;8.50;3.60;;;;;;;14.28;77.23;99191.31;5084518;28;20024;-70
2021/05/10 04:52:14;;;;;;;6.43;4.03;;;;;;;14.19;77.50;99195.16;5085133;28;20041;-68
2021/05/10 04:54:39;;;;;;;5.72;4.30;;;;;;;14.04;78.45;99224.53;5084562;28;20169;-70
2021/05/10 04:57:05;;;;;;;5.40;3.70;;;;;;;14.10;78.06;99226.88;5084205;28;20461;-69
2021/05/10 04:59:30;;;;;;;4.55;3.72;;;;;;;14.17;77.81;99237.91;5084586;28;20026;-68
2021/05/10 05:01:56;;;;;;;4.72;4.00;;;;;;;14.05;78.06;99237.53;5084306;28;20049;-68
2021/05/10 05:04:21;;;;;;;15.02;4.30;;;;;;;14.12;77.82;99232.91;5083666;28;20092;-70
2021/05/10 05:06:47;;;;;;;4.75;3.78;;;;;;;14.19;77.36;99238.69;5084295;28;20048;-69
2021/05/10 05:09:12;;;;;;;5.45;4.32;;;;;;;14.16;77.28;99251.88;5084137;28;20032;-67
2021/05/10 05:11:37;;;;;;;5.35;3.90;;;;;;;14.18;77.72;99247.44;5084370;28;20020;-68
2021/05/10 05:14:03;;;;;;;5.10;2.70;;;;;;;14.18;77.61;99242.22;5084053;28;20027;-68
2021/05/10 05:16:30;;;;;;;5.50;4.05;;;;;;;14.28;77.83;99259.16;5082834;28;20481;-67
2021/05/10 05:18:55;;;;;;;5.53;3.88;;;;;;;14.48;77.97;99244.44;5083915;28;20044;-68
2021/05/10 05:21:21;;;;;;;7.90;4.60;;;;;;;14.70;77.52;99243.47;5084216;28;20044;-68
2021/05/10 05:23:46;;;;;;;8.90;4.80;;;;;;;14.76;77.08;99232.75;5084359;28;20021;-69
2021/05/10 05:26:11;;;;;;;5.70;4.40;;;;;;;14.80;77.09;99239.59;5083876;28;20032;-67
2021/05/10 05:28:37;;;;;;;8.13;3.63;;;;;;;14.99;76.29;99233.50;5084044;28;20080;-68
2021/05/10 05:31:02;;;;;;;5.07;3.83;;;;;;;15.09;75.93;99244.41;5084222;28;20381;-69
2021/05/10 05:33:28;;;;;;;4.47;3.80;;;;;;;15.06;75.17;99255.00;5083835;28;20077;-66
2021/05/10 05:35:55;;;;;;;4.03;2.42;;;;;;;15.22;74.04;99255.97;5083690;28;20032;-68
2021/05/10 05:38:21;;;;;;;4.38;3.20;;;;;;;15.03;74.08;99247.28;5083690;28;20021;-68
2021/05/10 05:40:47;;;;;;;4.32;3.15;;;;;;;15.08;74.08;99250.56;5083745;28;20025;-69
2021/05/10 05:43:13;;;;;;;5.43;3.40;;;;;;;15.04;73.96;99246.38;5083851;28;20032;-67
2021/05/10 05:45:41;;;;;;;4.95;3.65;;;;;;;15.07;73.79;99273.22;5084052;28;20020;-68
2021/05/10 05:48:09;;;;;;;6.13;4.43;;;;;;;15.14;73.55;99271.19;5083530;28;20027;-69
2021/05/10 05:50:36;;;;;;;5.80;3.00;;;;;;;15.13;74.13;99279.94;5083609;28;20048;-69
2021/05/10 05:53:02;;;;;;;4.80;3.22;;;;;;;15.27;73.37;99273.22;5083804;28;20021;-69
2021/05/10 05:55:28;;;;;;;5.38;4.00;;;;;;;15.10;74.07;99264.38;5083723;28;20492;-69
2021/05/10 05:57:54;;;;;;;9.57;4.03;;;;;;;15.22;73.94;99276.88;5083562;28;20036;-69
2021/05/10 06:00:20;;;;;;;7.55;3.63;;;;;;;15.29;73.21;99277.47;5083574;28;20044;-67
2021/05/10 06:02:46;;;;;;;6.15;3.70;;;;;;;15.28;73.94;99280.16;5082173;28;20036;-69
2021/05/10 06:05:13;;;;;;;5.75;3.67;;;;;;;15.30;73.82;99284.41;5083220;28;20025;-68
2021/05/10 06:07:46;;;;;;;5.03;4.05;;;;;;;15.35;73.98;99282.41;5083212;28;20028;-69
2021/05/10 06:10:14;;;;;;;5.85;3.80;;;;;;;15.45;73.04;99295.03;5083549;28;20031;-68
2021/05/10 06:12:40;;;;;;;7.00;4.13;;;;;;;15.42;73.60;99313.50;5083645;28;20048;-69
2021/05/10 06:15:07;;;;;;;4.93;3.60;;;;;;;15.59;72.08;99326.63;5082644;28;20044;-68
2021/05/10 06:17:34;;;;;;;7.03;3.95;;;;;;;15.55;72.58;99337.31;5081713;28;20033;-68
2021/05/10 06:20:02;;;;;;;5.40;4.07;;;;;;;15.56;73.25;99347.72;5081782;28;20032;-68
2021/05/10 06:22:27;;;;;;;6.65;4.30;;;;;;;15.68;73.48;99366.38;5083460;28;20020;-68
2021/05/10 06:24:52;;;;;;;3.95;3.28;;;;;;;15.74;73.47;99369.56;5083479;28;20017;-68
2021/05/10 06:27:18;;;;;;;6.30;3.60;;;;;;;15.79;73.25;99369.34;5083189;28;20031;-68
2021/05/10 06:29:43;;;;;;;8.93;4.35;;;;;;;15.83;72.18;99370.06;5083505;28;20031;-68
2021/05/10 06:32:08;;;;;;;5.88;4.00;;;;;;;15.79;70.93;99369.34;5083275;28;20032;-69
2021/05/10 06:34:34;;;;;;;8.25;3.78;;;;;;;15.81;71.22;99379.75;5081705;28;20028;-69
2021/05/10 06:36:59;;;;;;;9.32;3.78;;;;;;;15.74;71.58;99379.16;5083285;28;20044;-69
2021/05/10 06:39:25;;;;;;;5.28;3.50;;;;;;;15.78;70.42;99395.59;5083267;28;20016;-68
2021/05/10 06:41:50;;;;;;;4.50;3.40;;;;;;;15.73;70.92;99390.56;5083617;28;20028;-69
2021/05/10 06:44:15;;;;;;;7.43;3.58;;;;;;;15.70;71.13;99396.78;5082050;28;20031;-68
2021/05/10 06:46:41;;;;;;;7.15;3.83;;;;;;;15.71;70.29;99388.03;5083211;28;20170;-68
2021/05/10 06:49:06;;;;;;;5.65;3.20;;;;;;;15.63;70.18;99386.66;5082934;28;20024;-67
2021/05/10 06:51:32;;;;;;;5.57;3.45;;;;;;;15.65;69.60;99390.91;5083471;28;20051;-68
2021/05/10 06:53:57;;;;;;;7.78;4.03;;;;;;;15.54;69.85;99391.41;5083261;28;20416;-67
2021/05/10 06:56:23;;;;;;;12.05;3.90;;;;;;;15.52;70.56;99382.78;5083009;28;20099;-67
2021/05/10 06:58:49;;;;;;;6.70;3.60;;;;;;;15.48;69.83;99383.81;5083364;28;20012;-68
2021/05/10 07:01:14;;;;;;;8.77;3.90;;;;;;;15.48;70.28;99382.06;5082952;28;20056;-68
2021/05/10 07:03:40;;;;;;;5.20;3.47;;;;;;;15.48;70.01;99362.91;5083032;28;20020;-68
2021/05/10 07:06:05;;;;;;;6.57;4.30;;;;;;;15.36;70.56;99356.47;5083103;28;20471;-68
2021/05/10 07:08:30;;;;;;;5.65;3.65;;;;;;;15.33;70.24;99367.94;5082992;28;20029;-69
2021/05/10 07:10:56;;;;;;;5.47;4.07;;;;;;;15.18;70.26;99345.06;5083176;28;20034;-68
2021/05/10 07:13:22;;;;;;;6.45;4.57;;;;;;;15.02;70.94;99326.59;5083122;28;20024;-68
2021/05/10 07:15:47;;;;;;;7.60;4.50;;;;;;;14.81;72.26;99321.44;5083394;28;20021;-67
2021/05/10 07:18:14;;;;;;;7.07;4.53;;;;;;;14.74;73.21;99318.19;5082975;28;20084;-68
2021/05/10 07:20:42;;;;;;;7.78;4.78;;;;;;;14.73;73.46;99292.97;5082834;28;20505;-67
2021/05/10 07:23:08;;;;;;;6.03;4.13;;;;;;;14.79;73.24;99295.34;5083196;28;20027;-67
2021/05/10 07:25:35;;;;;;;5.03;3.78;;;;;;;15.04;71.90;99278.59;5082988;28;20050;-67
2021/05/10 07:28:00;;;;;;;7.97;4.75;;;;;;;14.83;73.46;99273.41;5085685;28;20103;-68
2021/05/10 07:30:26;;;;;;;6.07;4.53;;;;;;;14.85;73.84;99255.06;5086230;28;20106;-68
2021/05/10 07:32:51;;;;;;;6.30;4.80;;;;;;;14.90;74.17;99218.25;5086261;28;20036;-68
2021/05/10 07:35:17;;;;;;;8.05;4.85;;;;;;;14.87;74.42;99201.78;5085797;28;20021;-67
2021/05/10 07:37:43;;;;;;;9.38;5.25;;;;;;;14.83;74.81;99208.09;5086001;28;20031;-68
2021/05/10 07:40:09;;;;;;;9.57;5.45;;;;;;;14.82;74.67;99190.72;5086076;28;20021;-69
2021/05/10 07:42:34;;;;;;;9.38;5.65;;;;;;;14.86;75.26;99199.25;5085984;28;20103;-68
2021/05/10 07:45:00;;;;;;;6.85;4.45;;;;;;;14.92;74.52;99204.19;5086083;28;20244;-68
2021/05/10 07:47:25;;;;;;;8.25;5.22;;;;;;;14.97;74.14;99203.97;5085865;28;20028;-68
2021/05/10 07:49:51;;;;;;;6.72;4.57;;;;;;;15.01;73.95;99218.63;5085491;28;20036;-67
2021/05/10 07:52:17;;;;;;;5.25;4.13;;;;;;;15.14;73.53;99221.53;5085869;28;20090;-67
2021/05/10 07:54:42;;;;;;;7.75;4.80;;;;;;;15.25;73.72;99213.16;5085810;28;20131;-67
2021/05/10 07:57:07;;;;;;;10.30;4.70;;;;;;;15.54;73.79;99212.69;5085637;28;20028;-66
2021/05/10 07:59:34;;;;;;;5.80;4.03;;;;;;;16.03;74.41;99217.31;5085817;28;20072;-67
2021/05/10 08:02:00;;;;;;;4.80;3.72;;;;;;;16.73;74.50;99210.25;5085459;28;20051;-67
2021/05/10 08:04:26;;;;;;;8.60;4.30;;;;;;;17.50;74.25;99237.63;5085259;28;20021;-67
2021/05/10 08:06:52;;;;;;;5.47;3.50;;;;;;;18.30;73.74;99236.59;5085279;28;20500;-67
2021/05/10 08:09:18;;;;;;;5.65;3.80;;;;;;;19.12;72.84;99243.91;5085270;28;20095;-67
2021/05/10 08:11:43;;;;;;;6.55;3.72;;;;;;;19.86;70.87;99239.25;5085568;28;20047;-67
2021/05/10 08:14:09;;;;;;;6.25;4.00;;;;;;;20.26;68.48;99231.34;5085448;28;20036;-67
2021/05/10 08:16:35;;;;;;;5.10;3.70;;;;;;;20.75;67.25;99251.81;5085355;28;20024;-68
2021/05/10 08:19:00;;;;;;;5.43;3.80;;;;;;;20.77;63.26;99253.38;5083564;28;20021;-67
2021/05/10 08:21:25;;;;;;;9.68;4.18;;;;;;;20.48;61.71;99258.88;5085117;28;20040;-68
2021/05/10 08:23:51;;;;;;;5.45;3.85;;;;;;;20.13;62.78;99260.31;5085154;28;20178;-68
2021/05/10 08:26:16;;;;;;;7.78;4.30;;;;;;;19.80;62.38;99270.34;5085272;28;20050;-68
2021/05/10 08:28:41;;;;;;;4.65;3.53;;;;;;;19.47;63.17;99257.56;5084787;28;20048;-68
2021/05/10 08:31:07;;;;;;;10.15;4.10;;;;;;;19.29;63.97;99260.44;5085073;28;20029;-68
2021/05/10 08:33:32;;;;;;;5.32;4.65;;;;;;;19.40;64.04;99271.13;5083640;28;20043;-67
2021/05/10 08:35:57;;;;;;;5.72;3.55;;;;;;;19.63;64.25;99275.88;5084799;28;20116;-68
2021/05/10 08:38:23;;;;;;;4.93;3.70;;;;;;;19.90;64.49;99270.59;5084207;28;20021;-68
2021/05/10 08:40:51;;;;;;;7.18;3.50;;;;;;;20.27;63.19;99262.03;5085156;28;20436;-67
2021/05/10 08:43:25;;;;;;;5.43;3.50;;;;;;;20.63;62.68;99278.06;5084928;28;20083;-68
2021/05/10 08:45:55;;;;;;;5.38;3.05;;;;;;;20.81;61.59;99283.84;5085215;28;20385;-68
2021/05/10 08:48:25;;;;;;;4.30;3.35;;;;;;;21.05;61.46;99290.22;5084693;28;20085;-67
2021/05/10 08:50:51;;;;;;;3.75;3.25;;;;;;;21.00;61.18;99292.31;5084479;28;20033;-68
2021/05/10 08:53:40;;;;;;;6.03;3.67;;;;;;;21.10;60.59;99293.38;5084988;28;20028;-68
2021/05/10 08:56:07;;;;;;;5.75;3.40;;;;;;;21.39;61.93;99316.00;5084867;28;20028;-67
2021/05/10 08:58:38;;;;;;;5.60;3.67;;;;;;;21.66;59.21;99317.59;5084412;28;20545;-66
2021/05/10 09:01:04;;;;;;;5.15;3.53;;;;;;;21.54;58.41;99325.47;5084485;28;20048;-67
2021/05/10 09:03:42;;;;;;;4.45;3.40;;;;;;;21.41;59.99;99325.50;5084596;28;20027;-67
2021/05/10 09:06:12;;;;;;;4.68;3.45;;;;;;;21.47;59.54;99332.13;5084368;28;20023;-67
2021/05/10 09:08:48;;;;;;;6.43;3.45;;;;;;;21.74;60.07;99330.25;5084235;28;20131;-66
2021/05/10 09:11:17;;;;;;;5.38;3.17;;;;;;;22.17;60.19;99342.13;5084498;28;20054;-67
2021/05/10 09:13:45;;;;;;;10.70;3.85;;;;;;;22.59;57.88;99346.94;5084220;28;20113;-66
2021/05/10 09:16:12;;;;;;;5.80;2.90;;;;;;;22.87;57.07;99360.72;5084436;28;20017;-67
2021/05/10 09:18:38;;;;;;;8.60;3.20;;;;;;;23.11;56.13;99362.44;5084017;28;20101;-66
2021/05/10 09:21:18;;;;;;;5.00;3.25;;;;;;;23.02;54.24;99369.25;5083855;28;20096;-67
2021/05/10 09:23:43;;;;;;;6.43;3.58;;;;;;;22.99;55.64;99382.75;5083974;28;20017;-66
2021/05/10 09:26:11;;;;;;;7.65;3.45;;;;;;;22.90;53.57;99378.16;5084056;28;20024;-66
2021/05/10 09:28:45;;;;;;;3.90;3.50;;;;;;;22.82;56.55;99368.16;5083719;28;20073;-66
2021/05/10 09:31:12;;;;;;;5.18;3.95;;;;;;;22.88;55.20;99375.63;5083892;28;20035;-67
2021/05/10 09:33:46;;;;;;;5.63;4.00;;;;;;;23.00;56.30;99368.53;5082383;28;20100;-68
2021/05/10 09:36:35;;;;;;;4.97;3.75;;;;;;;23.19;55.57;99351.22;5083909;28;20035;-67
2021/05/10 09:39:05;;;;;;;5.50;3.47;;;;;;;23.72;55.38;99373.56;5083813;28;20023;-68
2021/05/10 09:41:30;;;;;;;4.93;3.50;;;;;;;24.19;53.27;99363.69;5083689;28;20440;-67
2021/05/10 09:44:05;;;;;;;7.28;3.90;;;;;;;24.52;52.17;99385.75;5083923;28;20024;-68
2021/05/10 09:46:44;;;;;;;8.35;3.80;;;;;;;24.68;50.64;99385.28;5083617;28;20492;-65
2021/05/10 09:49:11;;;;;;;8.05;4.22;;;;;;;24.53;49.97;99399.84;5083441;28;20032;-66
2021/05/10 09:51:37;;;;;;;8.77;5.00;;;;;;;24.26;48.35;99402.88;5083966;28;20035;-68
2021/05/10 09:54:13;;;;;;;6.30;4.43;;;;;;;23.95;48.35;99405.31;5083588;28;20027;-67
2021/05/10 09:56:40;;;;;;;6.40;4.22;;;;;;;23.97;49.82;99398.09;5083477;28;20039;-65
2021/05/10 09:59:12;;;;;;;8.05;4.70;;;;;;;24.05;46.09;99394.81;5083674;28;20074;-66
2021/05/10 10:01:39;;;;;;;9.93;5.00;;;;;;;23.96;47.97;99383.16;5083416;28;20048;-67
2021/05/10 10:04:05;;;;;;;8.10;4.65;;;;;;;24.12;47.60;99387.22;5082984;28;20525;-67
2021/05/10 10:06:30;;;;;;;6.47;4.20;;;;;;;24.28;45.86;99375.38;5083305;28;20101;-67
2021/05/10 10:08:56;;;;;;;7.57;4.72;;;;;;;24.16;45.48;99364.81;5083250;28;20044;-68
2021/05/10 10:11:23;;;;;;;8.30;4.70;;;;;;;23.84;45.94;99368.25;5083342;28;20069;-68
2021/05/10 10:13:51;;;;;;;9.25;5.05;;;;;;;23.61;47.99;99353.25;5083357;28;20059;-68
2021/05/10 10:16:21;;;;;;;9.25;4.68;;;;;;;23.92;47.56;99349.91;5083203;28;20051;-66
2021/05/10 10:18:48;;;;;;;6.93;3.97;;;;;;;24.60;48.16;99359.38;5083118;28;20024;-67
2021/05/10 10:21:15;;;;;;;6.88;4.60;;;;;;;25.55;43.89;99358.44;5083209;28;20040;-68
2021/05/10 10:23:41;;;;;;;8.00;3.88;;;;;;;26.24;43.51;99377.16;5083283;28;20024;-68
2021/05/10 10:26:14;;;;;;;8.90;3.95;;;;;;;27.00;42.76;99378.31;5083121;28;20532;-68
2021/05/10 10:28:40;;;;;;;6.45;3.88;;;;;;;27.56;40.25;99365.88;5082910;28;20020;-68
2021/05/10 10:31:27;;;;;;;8.80;3.83;;;;;;;27.80;38.71;99363.66;5083022;28;20093;-68
2021/05/10 10:33:59;;;;;;;6.85;3.70;;;;;;;27.25;38.95;99376.84;5082814;28;20033;-68
2021/05/10 10:36:28;;;;;;;6.13;3.92;;;;;;;26.55;40.34;99396.63;5083115;28;20032;-69
2021/05/10 10:39:23;;;;;;;7.25;3.97;;;;;;;25.96;39.96;99390.28;5083015;28;20127;-68
2021/05/10 10:41:55;;;;;;;7.85;4.28;;;;;;;25.43;40.88;99368.31;5082993;28;20021;-67
2021/05/10 10:44:29;;;;;;;7.30;3.88;;;;;;;25.28;42.75;99367.88;5083038;28;20024;-68
2021/05/10 10:46:54;;;;;;;4.70;3.90;;;;;;;25.12;42.38;99361.25;5082777;28;20021;-67
2021/05/10 10:49:46;;;;;;;7.60;4.30;;;;;;;24.74;41.86;99360.03;5082457;28;20025;-67
2021/05/10 10:52:28;;;;;;;6.35;4.00;;;;;;;24.54;42.80;99361.75;5080720;28;20036;-68
2021/05/10 10:55:17;;;;;;;6.50;4.10;;;;;;;24.41;43.45;99369.88;5082918;28;20052;-68
2021/05/10 10:57:43;;;;;;;6.95;4.10;;;;;;;24.21;43.55;99370.56;5082758;28;20028;-67
2021/05/10 11:00:10;;;;;;;7.70;4.20;;;;;;;23.95;43.12;99378.81;5082699;28;20024;-67
2021/05/10 11:03:21;;;;;;;9.40;4.22;;;;;;;23.72;43.71;99375.41;5085408;28;20016;-68
2021/05/10 11:05:47;;;;;;;10.70;4.40;;;;;;;23.67;44.25;99381.06;5082127;28;20043;-67
2021/05/10 11:08:14;;;;;;;7.80;4.43;;;;;;;23.68;44.11;99387.19;5086394;28;20024;-68
2021/05/10 11:10:56;;;;;;;10.80;4.45;;;;;;;23.63;45.16;99379.63;5086317;28;20461;-69
2021/05/10 11:13:30;;;;;;;8.38;3.83;;;;;;;23.77;44.90;99384.66;5086474;28;20033;-68
2021/05/10 11:16:08;;;;;;;8.18;3.92;;;;;;;24.00;44.62;99387.25;5086346;28;20032;-69
2021/05/10 11:18:54;;;;;;;8.65;3.97;;;;;;;24.14;43.59;99386.13;5086441;28;20067;-69
2021/05/10 11:21:22;;;;;;;8.02;3.95;;;;;;;24.16;45.08;99383.38;5086354;28;20032;-69
2021/05/10 11:23:53;;;;;;;9.77;4.22;;;;;;;24.18;43.61;99384.09;5086314;28;20055;-68
2021/05/10 11:26:51;;;;;;;7.13;4.05;;;;;;;24.09;44.06;99384.81;5086270;28;20027;-68
2021/05/10 11:29:26;;;;;;;7.18;4.03;;;;;;;24.08;45.46;99385.75;5062639;28;20495;-69
2021/05/10 11:31:54;;;;;;;6.50;4.03;;;;;;;24.04;45.13;99387.00;5086589;28;20048;-68
2021/05/10 11:34:34;;;;;;;10.40;4.63;;;;;;;24.10;45.39;99383.84;5086285;28;20024;-68
2021/05/10 11:37:00;;;;;;;10.02;4.50;;;;;;;23.98;45.54;99378.56;5086444;28;20321;-68
2021/05/10 11:39:30;;;;;;;6.57;4.38;;;;;;;24.11;45.22;99374.91;5086271;28;20099;-69
2021/05/10 11:42:00;;;;;;;8.40;4.20;;;;;;;23.74;45.31;99389.34;5086545;28;20070;-64
2021/05/10 11:44:36;;;;;;;5.43;4.15;;;;;;;23.43;46.34;99379.41;5086309;28;20031;-64